createdAt,value
2018-11-13T00:01:41.922Z,12.20
2018-11-13T00:04:08.928Z,12.20
2018-11-13T00:06:36.401Z,12.20
2018-11-13T00:09:05.228Z,12.20
2018-11-13T00:11:32.330Z,12.20
2018-11-13T00:13:59.385Z,12.20
2018-11-13T00:16:26.423Z,12.20
2018-11-13T00:18:53.618Z,12.20
2018-11-13T00:21:20.810Z,12.10
2018-11-13T00:23:47.864Z,12.10
2018-11-13T00:26:15.143Z,12.10
2018-11-13T00:28:42.174Z,12.00
2018-11-13T00:31:09.232Z,11.90
2018-11-13T00:33:36.247Z,11.80
2018-11-13T00:36:03.778Z,11.80
2018-11-13T00:38:30.774Z,11.80
2018-11-13T00:40:58.876Z,11.80
2018-11-13T00:43:26.125Z,11.80
2018-11-13T00:45:53.487Z,11.70
2018-11-13T00:48:20.135Z,11.70
2018-11-13T00:50:47.170Z,11.60
2018-11-13T00:53:14.951Z,11.60
2018-11-13T00:55:41.967Z,11.60
2018-11-13T00:58:09.502Z,11.60
2018-11-13T01:00:36.844Z,11.70
2018-11-13T01:03:04.162Z,11.70
2018-11-13T01:05:31.295Z,11.80
2018-11-13T01:07:58.388Z,11.90
2018-11-13T01:10:25.395Z,11.80
2018-11-13T01:12:52.655Z,11.90
2018-11-13T01:15:20.338Z,11.90
2018-11-13T01:17:47.876Z,11.80
2018-11-13T01:20:16.934Z,11.70
2018-11-13T01:22:43.949Z,11.60
2018-11-13T01:25:12.082Z,11.60
2018-11-13T01:27:39.527Z,11.50
2018-11-13T01:30:08.131Z,11.50
2018-11-13T01:32:37.556Z,11.50
2018-11-13T01:35:06.152Z,11.50
2018-11-13T01:37:33.176Z,11.40
2018-11-13T01:40:00.479Z,11.50
2018-11-13T01:42:27.630Z,11.40
2018-11-13T01:44:54.639Z,11.40
2018-11-13T01:47:21.726Z,11.40
2018-11-13T01:49:48.771Z,11.40
2018-11-13T01:52:15.794Z,11.40
2018-11-13T01:54:42.903Z,11.40
2018-11-13T01:57:09.964Z,11.40
2018-11-13T01:59:37.020Z,11.40
2018-11-13T02:02:04.815Z,11.50
2018-11-13T02:04:32.256Z,11.50
2018-11-13T02:06:59.351Z,11.60
2018-11-13T02:09:26.468Z,11.60
2018-11-13T02:11:53.459Z,11.60
2018-11-13T02:14:20.463Z,11.60
2018-11-13T02:16:47.483Z,11.60
2018-11-13T02:19:14.492Z,11.60
2018-11-13T02:21:41.517Z,11.70
2018-11-13T02:24:09.002Z,11.60
2018-11-13T02:26:36.008Z,11.60
2018-11-13T02:29:03.033Z,11.60
2018-11-13T02:31:30.336Z,11.70
2018-11-13T02:34:28.410Z,11.70
2018-11-13T02:36:55.435Z,11.80
2018-11-13T02:39:22.434Z,11.80
2018-11-13T02:41:49.579Z,11.80
2018-11-13T02:44:16.772Z,11.80
2018-11-13T02:46:43.773Z,11.90
2018-11-13T02:49:10.786Z,11.90
2018-11-13T02:51:37.888Z,11.90
2018-11-13T02:54:05.095Z,11.90
2018-11-13T02:56:33.187Z,11.80
2018-11-13T02:59:00.291Z,11.80
2018-11-13T03:01:27.309Z,11.80
2018-11-13T03:03:54.335Z,11.70
2018-11-13T03:06:21.780Z,11.80
2018-11-13T03:08:48.819Z,11.80
2018-11-13T03:11:15.854Z,11.90
2018-11-13T03:13:43.111Z,11.80
2018-11-13T03:16:10.168Z,11.80
2018-11-13T03:18:37.252Z,11.80
2018-11-13T03:21:04.528Z,11.80
2018-11-13T03:23:31.543Z,11.90
2018-11-13T03:25:58.679Z,11.90
2018-11-13T03:28:25.850Z,11.90
2018-11-13T03:30:52.897Z,12.00
2018-11-13T03:33:19.920Z,12.00
2018-11-13T03:35:47.043Z,12.00
2018-11-13T03:38:14.075Z,12.00
2018-11-13T03:40:41.100Z,12.00
2018-11-13T03:43:08.277Z,12.00
2018-11-13T03:45:35.544Z,11.90
2018-11-13T03:48:02.649Z,12.00
2018-11-13T03:50:30.044Z,12.00
2018-11-13T03:52:57.068Z,11.90
2018-11-13T03:55:24.068Z,11.90
2018-11-13T03:57:51.097Z,11.90
2018-11-13T04:00:20.230Z,11.80
2018-11-13T04:02:47.228Z,11.80
2018-11-13T04:05:15.629Z,11.70
2018-11-13T04:07:50.867Z,11.70
2018-11-13T04:10:18.892Z,11.70
2018-11-13T04:12:48.444Z,11.80
2018-11-13T04:15:16.808Z,11.80
2018-11-13T04:20:41.607Z,11.80
2018-11-13T04:23:08.815Z,11.70
2018-11-13T04:25:35.959Z,11.60
2018-11-13T04:28:03.214Z,11.70
2018-11-13T04:30:30.416Z,11.70
2018-11-13T04:32:57.431Z,11.70
2018-11-13T04:35:24.611Z,11.70
2018-11-13T04:37:51.654Z,11.80
2018-11-13T04:40:19.676Z,11.70
2018-11-13T04:42:48.191Z,11.70
2018-11-13T04:45:16.316Z,11.80
2018-11-13T04:47:44.704Z,11.70
2018-11-13T04:50:13.918Z,11.70
2018-11-13T04:52:41.228Z,11.80
2018-11-13T04:55:08.901Z,11.80
2018-11-13T04:57:36.028Z,11.80
2018-11-13T05:00:05.099Z,11.80
2018-11-13T05:02:32.102Z,11.90
2018-11-13T05:04:59.172Z,11.80
2018-11-13T05:07:26.225Z,11.90
2018-11-13T05:09:53.296Z,11.80
2018-11-13T05:12:20.557Z,11.80
2018-11-13T05:14:47.627Z,11.80
2018-11-13T05:17:14.820Z,11.80
2018-11-13T05:19:42.247Z,11.70
2018-11-13T05:22:09.315Z,11.70
2018-11-13T05:24:36.461Z,11.70
2018-11-13T05:27:03.796Z,11.70
2018-11-13T05:29:30.843Z,11.70
2018-11-13T05:31:57.911Z,11.60
2018-11-13T05:34:25.558Z,11.60
2018-11-13T05:36:52.563Z,11.60
2018-11-13T05:39:19.648Z,11.60
2018-11-13T05:41:46.994Z,11.70
2018-11-13T05:44:14.071Z,11.70
2018-11-13T05:46:41.066Z,11.70
2018-11-13T05:49:08.537Z,11.80
2018-11-13T05:51:35.619Z,11.80
2018-11-13T05:54:02.617Z,11.80
2018-11-13T05:56:29.660Z,11.80
2018-11-13T05:58:56.699Z,11.80
2018-11-13T06:01:23.889Z,11.80
2018-11-13T06:03:51.041Z,11.80
2018-11-13T06:06:18.077Z,11.70
2018-11-13T06:08:45.200Z,11.80
2018-11-13T06:11:12.760Z,11.80
2018-11-13T06:13:39.809Z,11.80
2018-11-13T06:16:07.295Z,11.80
2018-11-13T06:18:34.387Z,11.80
2018-11-13T06:21:01.434Z,11.70
2018-11-13T06:23:28.480Z,11.70
2018-11-13T06:25:55.534Z,11.80
2018-11-13T06:28:22.519Z,11.80
2018-11-13T06:30:49.540Z,11.90
2018-11-13T06:33:16.605Z,11.80
2018-11-13T06:35:43.652Z,11.80
2018-11-13T06:38:10.715Z,11.80
2018-11-13T06:40:37.862Z,11.70
2018-11-13T06:43:05.280Z,11.70
2018-11-13T06:45:32.290Z,11.80
2018-11-13T06:47:59.412Z,11.80
2018-11-13T06:50:26.976Z,11.80
2018-11-13T06:52:53.999Z,11.80
2018-11-13T06:55:24.849Z,11.80
2018-11-13T06:57:51.859Z,11.80
2018-11-13T07:00:19.034Z,11.80
2018-11-13T07:02:46.099Z,11.90
2018-11-13T07:05:14.472Z,11.90
2018-11-13T07:07:41.948Z,11.90
2018-11-13T07:10:11.114Z,12.00
2018-11-13T07:12:38.900Z,12.00
2018-11-13T07:15:06.836Z,12.10
2018-11-13T07:17:34.093Z,12.10
2018-11-13T07:20:01.095Z,12.20
2018-11-13T07:22:28.119Z,12.20
2018-11-13T07:24:55.274Z,12.20
2018-11-13T07:27:22.336Z,12.20
2018-11-13T07:29:49.340Z,12.20
2018-11-13T07:32:16.425Z,12.20
2018-11-13T07:34:43.467Z,12.20
2018-11-13T07:37:10.492Z,12.20
2018-11-13T07:39:37.826Z,12.20
2018-11-13T07:42:04.948Z,12.20
2018-11-13T07:44:32.065Z,12.20
2018-11-13T07:46:59.629Z,12.10
2018-11-13T07:49:26.705Z,12.00
2018-11-13T07:51:54.088Z,11.90
2018-11-13T07:54:21.353Z,11.90
2018-11-13T07:56:48.470Z,11.90
2018-11-13T07:59:15.475Z,12.00
2018-11-13T08:01:42.521Z,12.00
2018-11-13T08:04:09.749Z,12.00
2018-11-13T08:06:36.809Z,12.00
2018-11-13T08:09:06.112Z,12.10
2018-11-13T08:11:33.169Z,12.20
2018-11-13T08:14:00.197Z,12.20
2018-11-13T08:16:27.833Z,12.30
2018-11-13T08:18:54.911Z,12.30
2018-11-13T08:21:21.909Z,12.30
2018-11-13T08:23:49.016Z,12.30
2018-11-13T08:26:16.115Z,12.30
2018-11-13T08:28:43.121Z,12.30
2018-11-13T08:31:10.325Z,12.30
2018-11-13T08:33:37.495Z,12.30
2018-11-13T08:36:04.757Z,12.30
2018-11-13T08:38:31.827Z,12.40
2018-11-13T08:40:58.843Z,12.40
2018-11-13T08:43:25.905Z,12.50
2018-11-13T08:45:53.297Z,12.60
2018-11-13T08:48:20.352Z,12.60
2018-11-13T08:50:47.457Z,12.60
2018-11-13T08:53:15.016Z,12.60
2018-11-13T08:55:42.056Z,12.60
2018-11-13T08:58:09.086Z,12.60
2018-11-13T09:00:36.234Z,12.50
2018-11-13T09:03:03.409Z,12.50
2018-11-13T09:05:30.435Z,12.60
2018-11-13T09:07:57.565Z,12.60
2018-11-13T09:10:24.585Z,12.60
2018-11-13T09:12:51.640Z,12.70
2018-11-13T09:15:20.355Z,12.70
2018-11-13T09:17:47.366Z,12.80
2018-11-13T09:20:15.498Z,12.80
2018-11-13T09:22:42.753Z,12.80
2018-11-13T09:25:12.044Z,12.80
2018-11-13T09:27:39.102Z,12.80
2018-11-13T09:30:09.494Z,12.80
2018-11-13T09:32:36.600Z,12.80
2018-11-13T09:35:04.418Z,12.80
2018-11-13T09:37:31.907Z,12.80
2018-11-13T09:39:58.929Z,12.90
2018-11-13T09:42:25.953Z,13.00
2018-11-13T09:44:53.091Z,12.90
2018-11-13T09:47:20.128Z,13.00
2018-11-13T09:49:47.119Z,13.00
2018-11-13T09:52:14.276Z,13.10
2018-11-13T09:54:41.560Z,13.10
2018-11-13T09:57:08.643Z,13.10
2018-11-13T09:59:48.791Z,13.10
2018-11-13T10:02:16.391Z,13.10
2018-11-13T10:04:43.474Z,13.00
2018-11-13T10:07:09.899Z,12.90
2018-11-13T10:09:36.907Z,12.90
2018-11-13T10:12:04.500Z,12.90
2018-11-13T10:14:31.514Z,12.90
2018-11-13T10:16:58.621Z,13.00
2018-11-13T10:19:25.667Z,13.00
2018-11-13T10:21:52.679Z,12.90
2018-11-13T10:24:19.705Z,12.90
2018-11-13T10:26:47.169Z,12.90
2018-11-13T10:29:14.572Z,12.90
2018-11-13T10:31:41.563Z,13.00
2018-11-13T10:34:08.912Z,13.10
2018-11-13T10:36:35.956Z,13.00
2018-11-13T10:39:04.145Z,13.00
2018-11-13T10:41:31.449Z,13.00
2018-11-13T10:43:58.503Z,12.90
2018-11-13T10:46:26.636Z,13.00
2018-11-13T10:48:53.843Z,12.90
2018-11-13T10:51:20.894Z,12.90
2018-11-13T10:53:48.525Z,13.00
2018-11-13T10:56:16.016Z,13.20
2018-11-13T10:58:43.077Z,13.20
2018-11-13T11:01:15.982Z,13.20
2018-11-13T11:03:48.915Z,13.20
2018-11-13T11:06:15.996Z,13.10
2018-11-13T11:08:43.456Z,13.00
2018-11-13T11:11:10.519Z,13.10
2018-11-13T11:13:37.703Z,13.20
2018-11-13T11:16:04.916Z,13.20
2018-11-13T11:18:32.026Z,13.30
2018-11-13T11:20:59.381Z,13.40
2018-11-13T11:23:26.457Z,13.40
2018-11-13T11:25:54.034Z,13.40
2018-11-13T11:28:21.092Z,13.40
2018-11-13T11:30:48.201Z,13.30
2018-11-13T11:33:15.180Z,13.30
2018-11-13T11:35:42.485Z,13.20
2018-11-13T11:38:10.297Z,13.20
2018-11-13T11:40:37.335Z,13.20
2018-11-13T11:43:04.596Z,13.10
2018-11-13T11:45:31.612Z,13.20
2018-11-13T11:47:58.619Z,13.20
2018-11-13T11:50:32.971Z,13.30
2018-11-13T11:53:00.019Z,13.30
2018-11-13T11:55:27.097Z,13.40
2018-11-13T11:57:54.510Z,13.30
2018-11-13T12:00:27.412Z,13.30
2018-11-13T12:02:54.504Z,13.20
2018-11-13T12:05:21.560Z,13.10
2018-11-13T12:07:48.984Z,13.10
2018-11-13T12:10:16.558Z,13.10
2018-11-13T12:12:43.608Z,13.10
2018-11-13T12:15:12.056Z,13.20
2018-11-13T12:17:39.292Z,13.20
2018-11-13T12:20:07.647Z,13.30
2018-11-13T12:22:34.663Z,13.40
2018-11-13T12:25:01.944Z,13.40
2018-11-13T12:27:28.924Z,13.50
2018-11-13T12:29:55.968Z,13.60
2018-11-13T12:32:23.028Z,13.80
2018-11-13T12:34:50.376Z,13.90
2018-11-13T12:37:17.460Z,13.90
2018-11-13T12:39:45.395Z,13.80
2018-11-13T12:42:12.399Z,13.80
2018-11-13T12:44:39.483Z,13.70
2018-11-13T12:47:06.523Z,13.70
2018-11-13T12:49:34.260Z,13.70
2018-11-13T12:52:07.180Z,13.80
2018-11-13T12:54:34.220Z,14.00
2018-11-13T12:57:01.295Z,14.20
2018-11-13T12:59:28.711Z,14.30
2018-11-13T13:01:56.574Z,14.20
2018-11-13T13:04:23.656Z,14.20
2018-11-13T13:06:50.744Z,14.00
2018-11-13T13:09:17.823Z,14.00
2018-11-13T13:11:44.834Z,14.10
2018-11-13T13:14:12.941Z,14.10
2018-11-13T13:16:39.967Z,14.10
2018-11-13T13:19:07.120Z,14.20
2018-11-13T13:21:34.158Z,14.10
2018-11-13T13:24:01.459Z,14.00
2018-11-13T13:26:28.526Z,13.90
2018-11-13T13:28:56.896Z,13.70
2018-11-13T13:31:24.239Z,13.80
2018-11-13T13:33:51.236Z,13.90
2018-11-13T13:36:18.516Z,14.00
2018-11-13T13:38:45.832Z,14.10
2018-11-13T13:41:12.826Z,14.10
2018-11-13T13:43:40.068Z,13.90
2018-11-13T13:46:07.536Z,13.80
2018-11-13T13:48:35.060Z,13.80
2018-11-13T13:51:02.167Z,13.70
2018-11-13T13:53:29.178Z,13.70
2018-11-13T13:55:56.223Z,13.70
2018-11-13T13:58:24.028Z,13.60
2018-11-13T14:00:51.680Z,13.50
2018-11-13T14:03:18.580Z,13.50
2018-11-13T14:05:46.165Z,13.40
2018-11-13T14:08:13.835Z,13.50
2018-11-13T14:10:40.984Z,13.50
2018-11-13T14:13:08.127Z,13.60
2018-11-13T14:15:35.271Z,13.50
2018-11-13T14:18:02.255Z,13.50
2018-11-13T14:20:29.656Z,13.40
2018-11-13T14:22:56.652Z,13.30
2018-11-13T14:25:23.684Z,13.30
2018-11-13T14:27:51.010Z,13.20
2018-11-13T14:30:20.240Z,13.20
2018-11-13T14:32:48.116Z,13.10
2018-11-13T14:35:15.620Z,13.10
2018-11-13T14:37:42.601Z,13.00
2018-11-13T14:40:14.382Z,12.90
2018-11-13T14:42:41.647Z,12.90
2018-11-13T14:45:09.080Z,12.80
2018-11-13T14:47:36.714Z,12.70
2018-11-13T14:50:06.191Z,12.60
2018-11-13T14:52:33.247Z,12.60
2018-11-13T14:55:00.474Z,12.60
2018-11-13T14:57:27.640Z,12.50
2018-11-13T14:59:54.705Z,12.50
2018-11-13T15:02:22.303Z,12.50
2018-11-13T15:04:49.363Z,12.60
2018-11-13T15:07:16.480Z,12.60
2018-11-13T15:09:43.533Z,12.60
2018-11-13T15:12:10.566Z,12.60
2018-11-13T15:14:37.571Z,12.60
2018-11-13T15:17:05.367Z,12.60
2018-11-13T15:19:32.406Z,12.60
2018-11-13T15:21:59.409Z,12.60
2018-11-13T15:24:26.783Z,12.60
2018-11-13T15:26:53.820Z,12.60
2018-11-13T15:29:20.866Z,12.70
2018-11-13T15:31:47.898Z,12.60
2018-11-13T15:34:14.919Z,12.60
2018-11-13T15:36:42.074Z,12.50
2018-11-13T15:39:10.805Z,12.40
2018-11-13T15:41:38.003Z,12.40
2018-11-13T15:44:05.189Z,12.40
2018-11-13T15:46:32.330Z,12.30
2018-11-13T15:48:59.403Z,12.30
2018-11-13T15:51:26.433Z,12.20
2018-11-13T15:53:53.460Z,12.20
2018-11-13T15:56:20.504Z,12.10
2018-11-13T15:58:47.548Z,12.00
2018-11-13T16:01:14.936Z,12.00
2018-11-13T16:03:42.347Z,11.90
2018-11-13T16:06:09.351Z,11.90
2018-11-13T16:08:36.380Z,11.80
2018-11-13T16:11:03.429Z,11.80
2018-11-13T16:13:30.447Z,11.80
2018-11-13T16:15:57.498Z,11.70
2018-11-13T16:18:25.846Z,11.60
2018-11-13T16:20:52.875Z,11.50
2018-11-13T16:23:20.227Z,11.50
2018-11-13T16:25:47.279Z,11.50
2018-11-13T16:28:14.439Z,11.50
2018-11-13T16:30:41.867Z,11.40
2018-11-13T16:33:08.891Z,11.40
2018-11-13T16:35:36.176Z,11.40
2018-11-13T16:38:04.872Z,11.40
2018-11-13T16:40:32.464Z,11.40
2018-11-13T16:42:59.519Z,11.30
2018-11-13T16:45:27.697Z,11.40
2018-11-13T16:47:55.156Z,11.30
2018-11-13T16:50:24.139Z,11.40
2018-11-13T16:52:51.623Z,11.30
2018-11-13T16:55:24.368Z,11.40
2018-11-13T16:57:51.961Z,11.40
2018-11-13T17:00:20.469Z,11.40
2018-11-13T17:02:47.707Z,11.30
2018-11-13T17:05:16.424Z,11.40
2018-11-13T17:07:43.447Z,11.40
2018-11-13T17:10:12.959Z,11.40
2018-11-13T17:12:40.336Z,11.50
2018-11-13T17:15:09.369Z,11.50
2018-11-13T17:17:36.405Z,11.50
2018-11-13T17:20:03.803Z,11.50
2018-11-13T17:22:30.922Z,11.40
2018-11-13T17:24:57.985Z,11.40
2018-11-13T17:27:25.737Z,11.30
2018-11-13T17:29:52.799Z,11.20
2018-11-13T17:32:19.792Z,11.20
2018-11-13T17:34:46.815Z,11.10
2018-11-13T17:37:13.925Z,11.10
2018-11-13T17:39:40.944Z,11.00
2018-11-13T17:42:08.203Z,11.00
2018-11-13T17:44:35.363Z,11.00
2018-11-13T17:47:02.448Z,10.90
2018-11-13T17:49:29.737Z,10.90
2018-11-13T17:51:56.744Z,10.80
2018-11-13T17:54:23.776Z,10.80
2018-11-13T17:56:51.910Z,10.70
2018-11-13T17:59:18.929Z,10.60
2018-11-13T18:01:45.968Z,10.60
2018-11-13T18:04:13.260Z,10.50
2018-11-13T18:06:40.543Z,10.50
2018-11-13T18:09:09.846Z,10.40
2018-11-13T18:11:37.080Z,10.40
2018-11-13T18:14:04.634Z,10.30
2018-11-13T18:16:31.591Z,10.20
2018-11-13T18:18:59.730Z,10.10
2018-11-13T18:21:26.763Z,10.00
2018-11-13T18:23:53.888Z,10.00
2018-11-13T18:26:20.961Z,9.90
2018-11-13T18:28:48.078Z,9.80
2018-11-13T18:31:15.743Z,9.80
2018-11-13T18:33:43.023Z,9.70
2018-11-13T18:36:10.012Z,9.60
2018-11-13T18:38:37.187Z,9.60
2018-11-13T18:41:04.491Z,9.60
2018-11-13T18:43:31.511Z,9.50
2018-11-13T18:45:58.515Z,9.50
2018-11-13T18:48:25.859Z,9.50
2018-11-13T18:50:52.885Z,9.40
2018-11-13T18:53:19.953Z,9.40
2018-11-13T18:55:46.932Z,9.40
2018-11-13T18:58:13.918Z,9.30
2018-11-13T19:00:41.300Z,9.30
2018-11-13T19:03:09.756Z,9.30
2018-11-13T19:05:36.761Z,9.20
2018-11-13T19:08:04.787Z,9.30
2018-11-13T19:10:52.622Z,9.30
2018-11-13T19:13:21.237Z,9.20
2018-11-13T19:15:50.848Z,9.20
2018-11-13T19:18:18.696Z,9.20
2018-11-13T19:20:45.698Z,9.20
2018-11-13T19:23:13.378Z,9.20
2018-11-13T19:25:40.645Z,9.10
2018-11-13T19:28:07.684Z,9.10
2018-11-13T19:30:34.944Z,9.10
2018-11-13T19:33:01.957Z,9.10
2018-11-13T19:35:29.105Z,9.10
2018-11-13T19:37:56.012Z,9.10
2018-11-13T19:40:24.270Z,9.00
2018-11-13T19:42:52.020Z,9.10
2018-11-13T19:45:19.661Z,9.10
2018-11-13T19:47:46.625Z,9.00
2018-11-13T19:50:15.325Z,9.00
2018-11-13T19:52:42.434Z,9.00
2018-11-13T19:55:11.259Z,9.00
2018-11-13T19:57:39.088Z,9.00
2018-11-13T20:00:09.861Z,8.90
2018-11-13T20:02:37.688Z,8.90
2018-11-13T20:05:06.140Z,8.90
2018-11-13T20:07:34.148Z,8.90
2018-11-13T20:10:01.453Z,8.90
2018-11-13T20:12:28.488Z,8.90
2018-11-13T20:14:55.546Z,8.90
2018-11-13T20:17:22.547Z,8.90
2018-11-13T20:19:49.531Z,9.00
2018-11-13T20:22:16.766Z,8.90
2018-11-13T20:24:43.902Z,8.90
2018-11-13T20:27:10.879Z,8.90
2018-11-13T20:29:38.522Z,8.90
2018-11-13T20:32:05.572Z,8.90
2018-11-13T20:34:32.644Z,9.00
2018-11-13T20:36:59.695Z,9.10
2018-11-13T20:39:26.727Z,9.10
2018-11-13T20:41:53.752Z,9.10
2018-11-13T20:44:20.780Z,9.20
2018-11-13T20:46:47.761Z,9.10
2018-11-13T20:49:15.268Z,9.10
2018-11-13T20:51:42.705Z,9.10
2018-11-13T20:54:09.863Z,9.00
2018-11-13T20:56:37.039Z,9.00
2018-11-13T20:59:04.417Z,9.00
2018-11-13T21:01:31.461Z,8.90
2018-11-13T21:03:58.524Z,8.90
2018-11-13T21:06:26.025Z,8.90
2018-11-13T21:08:53.060Z,8.80
2018-11-13T21:11:20.441Z,8.80
2018-11-13T21:13:47.501Z,8.80
2018-11-13T21:16:14.569Z,8.70
2018-11-13T21:18:41.519Z,8.70
2018-11-13T21:21:08.859Z,8.70
2018-11-13T21:23:35.910Z,8.70
2018-11-13T21:26:04.767Z,8.60
2018-11-13T21:28:31.918Z,8.60
2018-11-13T21:30:58.971Z,8.60
2018-11-13T21:33:25.993Z,8.50
2018-11-13T21:35:53.220Z,8.50
2018-11-13T21:38:20.300Z,8.50
2018-11-13T21:40:47.511Z,8.40
2018-11-13T21:43:14.708Z,8.40
2018-11-13T21:45:41.711Z,8.40
2018-11-13T21:48:08.778Z,8.30
2018-11-13T21:50:36.380Z,8.30
2018-11-13T21:53:03.434Z,8.30
2018-11-13T21:55:30.457Z,8.30
2018-11-13T21:57:57.753Z,8.20
2018-11-13T22:00:28.702Z,8.20
2018-11-13T22:02:57.928Z,8.20
2018-11-13T22:05:26.082Z,8.10
2018-11-13T22:07:53.132Z,8.10
2018-11-13T22:10:20.335Z,8.20
2018-11-13T22:12:47.742Z,8.20
2018-11-13T22:15:16.005Z,8.20
2018-11-13T22:17:43.817Z,8.20
2018-11-13T22:20:11.840Z,8.20
2018-11-13T22:22:38.908Z,8.20
2018-11-13T22:25:10.773Z,8.20
2018-11-13T22:27:38.017Z,8.20
2018-11-13T22:30:05.681Z,8.20
2018-11-13T22:32:32.752Z,8.20
2018-11-13T22:34:59.840Z,8.20
2018-11-13T22:37:26.881Z,8.20
2018-11-13T22:39:54.141Z,8.30
2018-11-13T22:42:21.094Z,8.30
2018-11-13T22:44:48.232Z,8.30
2018-11-13T22:47:15.368Z,8.30
2018-11-13T22:49:42.893Z,8.30
2018-11-13T22:52:09.886Z,8.30
2018-11-13T22:54:36.916Z,8.30
2018-11-13T22:57:04.104Z,8.30
2018-11-13T22:59:31.148Z,8.30
2018-11-13T23:01:58.166Z,8.30
2018-11-13T23:04:25.236Z,8.30
2018-11-13T23:06:52.237Z,8.30
2018-11-13T23:09:19.340Z,8.30
2018-11-13T23:11:46.355Z,8.40
2018-11-13T23:14:13.649Z,8.40
2018-11-13T23:16:41.048Z,8.50
2018-11-13T23:19:08.076Z,8.50
2018-11-13T23:21:35.085Z,8.50
2018-11-13T23:24:02.591Z,8.50
2018-11-13T23:26:29.791Z,8.50
2018-11-13T23:28:56.868Z,8.50
2018-11-13T23:31:24.160Z,8.40
2018-11-13T23:33:51.207Z,8.40
2018-11-13T23:36:18.334Z,8.50
2018-11-13T23:38:45.285Z,8.50
2018-11-13T23:41:12.303Z,8.60
2018-11-13T23:43:39.312Z,8.60
2018-11-13T23:46:06.491Z,8.70
2018-11-13T23:48:33.671Z,8.80
2018-11-13T23:51:00.566Z,8.90
2018-11-13T23:53:27.775Z,9.00
2018-11-13T23:55:54.802Z,9.10
2018-11-13T23:58:21.802Z,9.20
